createdAt,value
2018-11-29T05:32:14.923Z,24.10
2018-11-29T05:34:42.871Z,22.40
2018-11-29T05:37:10.914Z,21.47
2018-11-29T05:39:39.824Z,22.70
2018-11-29T05:42:07.782Z,19.90
2018-11-29T05:44:35.770Z,24.33
2018-11-29T05:47:03.782Z,22.77
2018-11-29T05:49:31.689Z,23.20
2018-11-29T05:51:59.614Z,22.43
2018-11-29T05:54:27.636Z,23.23
2018-11-29T05:56:55.603Z,24.70
2018-11-29T05:59:23.551Z,25.37
2018-11-29T06:01:52.430Z,25.57
2018-11-29T06:04:20.341Z,25.90
2018-11-29T06:06:48.295Z,28.50
2018-11-29T06:09:16.276Z,29.50
2018-11-29T06:11:44.206Z,26.03
2018-11-29T06:14:12.138Z,28.60
2018-11-29T06:16:40.058Z,32.50
2018-11-29T06:19:08.359Z,28.37
2018-11-29T06:21:36.322Z,25.70
2018-11-29T06:24:04.371Z,25.03
2018-11-29T06:26:32.361Z,24.27
2018-11-29T06:29:00.341Z,28.53
2018-11-29T06:31:28.298Z,28.77
2018-11-29T06:33:57.002Z,25.87
2018-11-29T06:36:24.966Z,26.37
2018-11-29T06:38:52.922Z,27.27
2018-11-29T06:41:20.869Z,24.07
2018-11-29T06:43:48.867Z,24.23
2018-11-29T06:46:16.872Z,28.43
2018-11-29T06:48:44.799Z,25.27
2018-11-29T06:51:12.774Z,25.33
2018-11-29T06:53:46.160Z,28.97
2018-11-29T06:56:14.091Z,29.13
2018-11-29T06:58:42.021Z,27.60
2018-11-29T07:01:09.942Z,28.70
2018-11-29T07:03:37.872Z,29.87
2018-11-29T07:06:06.344Z,30.67
2018-11-29T07:08:34.303Z,27.30
2018-11-29T07:11:02.226Z,30.70
2018-11-29T07:13:30.154Z,29.87
2018-11-29T07:15:58.096Z,28.57
2018-11-29T07:18:26.235Z,29.00
2018-11-29T07:20:59.843Z,27.00
2018-11-29T07:23:27.852Z,25.50
2018-11-29T07:25:55.774Z,24.33
2018-11-29T07:28:23.698Z,25.27
2018-11-29T07:30:51.674Z,23.47
2018-11-29T07:33:19.614Z,25.33
2018-11-29T07:35:47.775Z,26.80
2018-11-29T07:38:15.711Z,25.10
2018-11-29T07:40:43.647Z,26.43
2018-11-29T07:43:11.635Z,26.20
2018-11-29T16:11:43.426Z,25.43
2018-11-29T16:14:11.424Z,17.33
2018-11-29T16:16:39.456Z,15.17
2018-11-29T16:19:16.992Z,20.57
2018-11-29T16:21:45.017Z,14.53
2018-11-29T16:24:12.933Z,25.00
2018-11-29T16:26:40.963Z,26.73
2018-11-29T16:29:08.968Z,16.73
2018-11-29T16:31:36.892Z,22.37
2018-11-29T16:34:04.976Z,38.80
2018-11-29T16:36:32.926Z,25.63
2018-11-29T16:39:00.886Z,19.40
2018-11-29T16:41:28.801Z,19.80
2018-11-29T16:43:56.718Z,25.90
2018-11-29T16:46:24.658Z,23.13
2018-11-29T16:48:52.207Z,21.90
2018-11-29T16:51:20.186Z,20.07
2018-11-29T16:53:48.186Z,32.13
2018-11-29T16:56:16.171Z,21.93
2018-11-29T16:58:44.132Z,17.00
2018-11-29T17:01:12.052Z,18.83
2018-11-29T17:03:39.975Z,25.17
2018-11-29T17:06:07.943Z,17.63
2018-11-29T17:08:35.863Z,21.00
2018-11-29T17:11:03.779Z,24.47
2018-11-29T17:13:31.694Z,23.10
2018-11-29T17:15:59.610Z,22.10
2018-11-29T17:18:27.578Z,19.27
2018-11-29T17:20:55.546Z,28.93
2018-11-29T17:23:23.478Z,24.40
2018-11-29T17:25:51.390Z,20.63
2018-11-29T17:28:19.312Z,25.57
2018-11-29T17:30:48.038Z,26.20
2018-11-29T17:33:15.972Z,26.40
2018-11-29T17:35:43.989Z,30.17
2018-11-29T17:38:11.915Z,26.03
2018-11-29T17:40:39.829Z,28.83
2018-11-29T17:43:07.774Z,25.57
2018-11-29T17:45:35.770Z,27.07
2018-11-29T17:48:03.224Z,22.60
2018-11-29T17:50:31.813Z,28.03
2018-11-29T17:52:59.811Z,24.50
2018-11-29T17:55:27.770Z,30.77
2018-11-29T17:57:55.686Z,25.33
2018-11-29T18:00:28.363Z,20.60
2018-11-29T18:02:56.359Z,20.17
2018-11-29T18:05:24.298Z,23.80
2018-11-29T18:07:52.214Z,19.83
2018-11-29T18:10:21.589Z,19.63
2018-11-29T18:12:50.390Z,26.87
2018-11-29T18:15:18.986Z,21.87
2018-11-29T18:17:46.918Z,23.70
2018-11-29T18:20:14.825Z,22.33
2018-11-29T18:22:42.738Z,19.43
2018-11-29T18:25:14.030Z,18.00
2018-11-29T18:27:49.307Z,20.17
2018-11-29T18:30:17.761Z,22.70
2018-11-29T18:32:45.734Z,28.13
2018-11-29T18:35:13.866Z,21.90
2018-11-29T18:37:41.866Z,20.63
2018-11-29T18:40:10.428Z,19.67
2018-11-29T18:42:38.398Z,29.27
2018-11-29T18:45:13.674Z,24.67
2018-11-29T18:47:42.658Z,25.70
2018-11-29T18:50:14.062Z,21.47
2018-11-29T18:52:41.986Z,20.10
2018-11-29T18:55:10.166Z,26.13
2018-11-29T18:57:38.086Z,19.73
2018-11-29T19:00:09.108Z,25.80
2018-11-29T19:02:37.011Z,22.03
2018-11-29T19:05:05.370Z,24.70
2018-11-29T19:07:33.283Z,19.10
2018-11-29T19:10:01.237Z,18.03
2018-11-29T19:12:29.138Z,18.87
2018-11-29T19:14:57.083Z,20.40
2018-11-29T19:17:25.273Z,17.07
2018-11-29T19:19:53.243Z,19.37
2018-11-29T19:22:21.158Z,18.43
2018-11-29T19:24:49.158Z,14.67
2018-11-29T19:27:17.167Z,17.90
2018-11-29T19:29:45.082Z,17.70
2018-11-29T19:32:13.024Z,18.67
2018-11-29T19:34:40.971Z,15.40
2018-11-29T19:37:08.923Z,16.63
2018-11-29T19:39:36.839Z,15.43
2018-11-29T19:42:04.821Z,16.80
2018-11-29T19:44:32.735Z,15.90
2018-11-29T19:47:00.784Z,15.57
2018-11-29T19:49:28.182Z,15.50
2018-11-29T19:51:56.124Z,18.50
2018-11-29T19:54:24.054Z,13.50
2018-11-29T19:56:52.050Z,15.53
2018-11-29T19:59:20.023Z,19.90
2018-11-29T20:01:48.736Z,16.50
2018-11-29T20:04:15.887Z,15.50
2018-11-29T20:06:43.814Z,17.10
2018-11-29T20:09:11.800Z,15.97
2018-11-29T20:11:39.707Z,17.10
2018-11-29T20:14:07.622Z,17.07
2018-11-29T20:16:35.575Z,16.17
2018-11-29T20:19:03.559Z,18.47
2018-11-29T20:21:31.543Z,17.40
2018-11-29T20:23:59.507Z,18.93
2018-11-29T20:26:27.490Z,20.23
2018-11-29T20:28:55.493Z,16.30
2018-11-29T20:31:23.443Z,17.17
2018-11-29T20:33:51.346Z,16.60
2018-11-29T20:36:19.282Z,15.77
2018-11-29T20:38:47.236Z,18.80
2018-11-29T20:41:15.144Z,19.40
2018-11-29T20:43:43.163Z,15.47
2018-11-29T20:46:11.126Z,16.13
2018-11-29T20:48:40.067Z,17.07
2018-11-29T20:51:08.008Z,14.40
2018-11-29T20:53:37.875Z,17.83
2018-11-29T20:56:07.520Z,15.57
2018-11-29T20:58:35.614Z,17.57
2018-11-29T21:01:03.542Z,17.37
2018-11-29T21:03:31.527Z,20.63
2018-11-29T21:05:59.495Z,17.13
2018-11-29T21:08:27.466Z,18.30
2018-11-29T21:10:55.410Z,13.10
2018-11-29T21:13:23.343Z,17.00
2018-11-29T21:15:51.270Z,14.37
2018-11-29T21:18:19.204Z,15.87
2018-11-29T21:20:47.089Z,18.87
2018-11-29T21:23:15.599Z,14.50
2018-11-29T21:25:43.966Z,12.30
2018-11-29T21:28:11.890Z,13.73
2018-11-29T21:30:39.907Z,15.57
2018-11-29T21:33:08.304Z,15.10
2018-11-29T21:35:36.270Z,18.50
2018-11-29T21:38:08.340Z,18.10
2018-11-29T21:40:36.242Z,15.57
2018-11-29T21:43:04.154Z,13.60
2018-11-29T21:45:32.240Z,14.83
2018-11-29T21:48:00.148Z,17.93
2018-11-29T21:50:29.078Z,11.27
2018-11-29T21:52:57.062Z,15.13
2018-11-29T21:55:25.004Z,13.97
2018-11-29T21:57:52.918Z,12.97
2018-11-29T22:00:21.415Z,16.03
2018-11-29T22:02:50.085Z,15.90
2018-11-29T22:05:18.000Z,16.73
2018-11-29T22:07:46.007Z,17.13
2018-11-29T22:10:14.003Z,17.77
2018-11-29T22:12:41.936Z,16.17
2018-11-29T22:15:10.343Z,16.87
2018-11-29T22:18:41.689Z,15.83
2018-11-29T22:21:09.625Z,21.90
2018-11-29T22:23:38.163Z,16.53
2018-11-29T22:26:07.983Z,20.00
2018-11-29T22:28:35.924Z,16.27
2018-11-29T22:31:03.871Z,16.00
2018-11-29T22:33:31.854Z,15.87
2018-11-29T22:35:59.778Z,16.83
2018-11-29T22:38:27.711Z,17.07
2018-11-29T22:40:55.644Z,20.57
2018-11-29T22:43:23.570Z,21.90
2018-11-29T22:45:51.501Z,17.13
2018-11-29T22:48:19.434Z,17.33
2018-11-29T22:50:47.839Z,16.27
2018-11-29T22:53:15.781Z,19.03
2018-11-29T22:55:44.954Z,16.50
2018-11-29T22:58:12.951Z,19.77
2018-11-29T23:00:46.540Z,15.00
2018-11-29T23:03:14.478Z,16.60
2018-11-29T23:05:42.440Z,15.20
2018-11-29T23:08:10.382Z,18.17
2018-11-29T23:10:38.352Z,18.70
2018-11-29T23:13:06.591Z,18.67
2018-11-29T23:15:34.587Z,19.47
2018-11-29T23:18:02.615Z,17.87
2018-11-29T23:20:30.938Z,19.13
2018-11-29T23:22:59.455Z,22.95
2018-11-29T23:25:27.875Z,26.50
2018-11-29T23:27:56.362Z,25.90
2018-11-29T23:30:24.877Z,23.90
2018-11-29T23:32:53.541Z,26.53
2018-11-29T23:35:22.115Z,25.30
2018-11-29T23:37:50.724Z,28.00
2018-11-29T23:40:19.601Z,26.57
2018-11-29T23:42:47.571Z,28.43
